Kaprifol — 5BXX2 — position and weather

sailwx.info

Track history (hours):
 
Tides and Currents Weather Stations Pressure Air Temp Water Temp Dewpoint Dewpoint Depression Visibility Wind Speed Wind Dir Waves Ship Positions

Kaprifol

Last reported at 2017-Dec-11 02:02 UTC. Time now 2017-Dec-11 19:21 UTC.
Position N 51°47' E 003°20'.

Length 89 m; draft 5.1 m.

Type: Tanker. MMSI: 210445000.

Date/timePositionNaut miles runAvg speedWind from/ knotsBaromVisibWave heightAir tempDewpointWater temp
2017-Dec-11 02:02N 51°47' E 003°20'0 0.0
2017-Dec-11 01:46N 51°47' E 003°20'0 0.0
2017-Dec-11 01:29N 51°47' E 003°20'0 0.0
2017-Dec-10 23:10N 51°47' E 003°20'0 0.0
2017-Dec-10 18:28N 51°47' E 003°21'0 0.0
2017-Dec-10 02:43N 51°47' E 003°20'0 0.0
2017-Dec-10 02:28N 51°47' E 003°20'0 0.0
2017-Dec-10 01:43N 51°47' E 003°20'0 0.0
2017-Dec-10 01:28N 51°47' E 003°20'66 7.3
2017-Dec-09 16:32N 52°50' E 003°49'1 9.3
2017-Dec-09 16:28N 52°51' E 003°50'5 9.5
2017-Dec-09 15:54N 52°55' E 003°56'37 9.6
2017-Dec-09 12:00N 53°24' E 004°35'4 8.6
2017-Dec-09 11:30N 53°28' E 004°39'4 7.8
2017-Dec-09 10:59N 53°30' E 004°44'4 7.5
2017-Dec-09 10:30N 53°31' E 004°50'4 7.6
2017-Dec-09 10:00N 53°32' E 004°56'4 7.5
2017-Dec-09 09:30N 53°33' E 005°02'4 7.2
2017-Dec-09 08:58N 53°35' E 005°08'93 7.5
2017-Dec-08 20:35N 54°01' E 007°38'110.0
2017-Dec-08 20:30N 54°01' E 007°40'510.0
2017-Dec-08 20:01N 54°02' E 007°48'5 9.9
2017-Dec-08 19:29N 54°01' E 007°57'5 9.5
2017-Dec-08 19:00N 54°01' E 008°05'5 9.8
2017-Dec-08 18:30N 54°01' E 008°13'510.3
2017-Dec-08 18:00N 53°60' E 008°22'612.4
2017-Dec-08 17:30N 53°58' E 008°32'611.5
2017-Dec-08 17:00N 53°56' E 008°40'511.0
2017-Dec-08 16:30N 53°51' E 008°46'5 9.2
2017-Dec-08 16:01N 53°51' E 008°53'4 8.1
2017-Dec-08 15:30N 53°51' E 009°00'4 8.2
2017-Dec-08 15:00N 53°53' E 009°07'1 2.6
2017-Dec-08 14:30N 53°54' E 009°09'0 0.0
2017-Dec-08 14:00N 53°54' E 009°09'0 0.0
2017-Dec-08 13:31N 53°54' E 009°09'1 2.2
2017-Dec-08 13:01N 53°54' E 009°10'4 8.1
2017-Dec-08 12:30N 53°57' E 009°15'4 8.0
2017-Dec-08 12:00N 54°01' E 009°18'1 2.8
2017-Dec-08 11:28N 54°02' E 009°18'1 2.1
2017-Dec-08 11:00N 54°03' E 009°18'4 7.9
2017-Dec-08 10:30N 54°07' E 009°20'2 5.1
2017-Dec-08 10:00N 54°09' E 009°22'4 7.3
2017-Dec-08 09:31N 54°11' E 009°28'3 6.7
2017-Dec-08 09:00N 54°12' E 009°33'1 1.4
2017-Dec-08 08:30N 54°12' E 009°34'3 6.3
2017-Dec-08 08:00N 54°15' E 009°37'4 7.4
2017-Dec-08 07:30N 54°18' E 009°42'4 6.3
2017-Dec-08 06:56N 54°21' E 009°45'30 5.5
2017-Dec-08 01:27N 54°33' E 010°32'510.5
2017-Dec-08 01:01N 54°35' E 010°39'510.2
2017-Dec-08 00:31N 54°36' E 010°48'510.6
2017-Dec-08 00:00N 54°40' E 010°51'510.4
2017-Dec-07 23:31N 54°46' E 010°52'510.9
2017-Dec-07 23:01N 54°51' E 010°52'510.6
2017-Dec-07 22:30N 54°56' E 010°55'510.4
2017-Dec-07 22:00N 55°00' E 011°01'611.0
2017-Dec-07 21:30N 55°06' E 011°02'610.5
2017-Dec-07 20:57N 55°11' E 011°04'61 9.8
2017-Dec-07 14:44N 56°07' E 010°19'4 9.5
2017-Dec-07 14:19N 56°10' E 010°14'1 0.1
2017-Dec-06 23:28N 56°09' E 010°13'2 2.7
2017-Dec-06 22:52N 56°09' E 010°16'  
2017-Dec-04 10:30N 63°16' E 006°55'4 8.4
2017-Dec-04 10:00N 63°16' E 007°04'4 8.3
2017-Dec-04 09:30N 63°15' E 007°13'4 9.1
2017-Dec-04 09:00N 63°15' E 007°23'4 8.7
2017-Dec-04 08:30N 63°15' E 007°33'4 8.4
2017-Dec-04 08:00N 63°14' E 007°42'4 8.8
2017-Dec-04 07:30N 63°09' E 007°43'510.8
2017-Dec-04 07:00N 63°04' E 007°41'1 1.6
2017-Dec-04 06:28N 63°03' E 007°40'0 0.0
2017-Dec-04 05:58N 63°03' E 007°40'0 0.0
2017-Dec-04 05:28N 63°03' E 007°40'0 0.0
2017-Dec-04 04:58N 63°03' E 007°40'0 0.0
2017-Dec-04 04:28N 63°03' E 007°40'0 0.0
2017-Dec-04 03:58N 63°03' E 007°40'0 0.0
2017-Dec-04 03:28N 63°03' E 007°40'0 0.0
2017-Dec-04 02:58N 63°03' E 007°40'0 0.0
2017-Dec-04 02:28N 63°03' E 007°40'0 0.0
2017-Dec-04 01:58N 63°03' E 007°40'0 0.0
2017-Dec-04 01:28N 63°03' E 007°40'0 0.0
2017-Dec-04 00:58N 63°03' E 007°40'0 0.0
2017-Dec-04 00:25N 63°03' E 007°40'0 0.0
2017-Dec-03 23:58N 63°03' E 007°40'0 0.0
2017-Dec-03 23:28N 63°03' E 007°40'0 0.0
2017-Dec-03 22:58N 63°03' E 007°40'0 0.0
2017-Dec-03 22:28N 63°03' E 007°40'1 1.9
2017-Dec-03 22:00N 63°04' E 007°41'2 4.5
2017-Dec-03 21:30N 63°06' E 007°41'3 5.7
2017-Dec-03 21:01N 63°09' E 007°42'3 5.3
2017-Dec-03 20:30N 63°11' E 007°45'4 7.0
2017-Dec-03 20:00N 63°14' E 007°40'611.1
2017-Dec-03 19:30N 63°14' E 007°27'611.3
2017-Dec-03 19:00N 63°11' E 007°16'611.3
2017-Dec-03 18:30N 63°08' E 007°05'510.8
2017-Dec-03 18:00N 63°05' E 006°55'510.7
2017-Dec-03 17:30N 63°03' E 006°45'510.7
2017-Dec-03 17:00N 63°00' E 006°34'510.5
2017-Dec-03 16:30N 62°57' E 006°25'510.9
2017-Dec-03 16:00N 62°53' E 006°17'611.0
2017-Dec-03 15:30N 62°50' E 006°08'611.1
2017-Dec-03 15:00N 62°46' E 005°59'510.9
2017-Dec-03 14:30N 62°42' E 005°50'510.9
2017-Dec-03 14:00N 62°39' E 005°41'510.8
2017-Dec-03 13:30N 62°35' E 005°32'510.6
2017-Dec-03 13:00N 62°31' E 005°24'510.6
2017-Dec-03 12:30N 62°28' E 005°16'510.5
2017-Dec-03 12:00N 62°24' E 005°08'510.3
2017-Dec-03 11:30N 62°21' E 004°59'510.1
2017-Dec-03 11:00N 62°16' E 004°54'510.1
2017-Dec-03 10:30N 62°12' E 004°49'510.3
2017-Dec-03 10:00N 62°07' E 004°43'510.4
2017-Dec-03 09:30N 62°03' E 004°38'510.2
2017-Dec-03 09:00N 61°58' E 004°33'5 9.6
2017-Dec-03 08:30N 61°54' E 004°29'4 8.8
2017-Dec-03 08:00N 61°50' E 004°28'4 8.7
2017-Dec-03 07:30N 61°45' E 004°26'4 8.8
2017-Dec-03 07:00N 61°41' E 004°25'4 8.9
2017-Dec-03 06:30N 61°36' E 004°24'4 8.8
2017-Dec-03 06:00N 61°32' E 004°23'4 8.8
2017-Dec-03 05:30N 61°28' E 004°23'4 8.9
2017-Dec-03 05:00N 61°23' E 004°23'5 9.5
2017-Dec-03 04:30N 61°18' E 004°22'5 8.9
2017-Dec-03 04:00N 61°14' E 004°21'4 9.1
2017-Dec-03 03:30N 61°10' E 004°20'5 9.7
2017-Dec-03 03:00N 61°05' E 004°19'510.2
2017-Dec-03 02:30N 60°60' E 004°18'510.3
2017-Dec-03 02:00N 60°55' E 004°17'510.0
2017-Dec-03 01:30N 60°50' E 004°20'5 9.4
2017-Dec-03 01:00N 60°45' E 004°22'5 9.2
2017-Dec-03 00:30N 60°40' E 004°23'5 9.6
2017-Dec-03 00:00N 60°36' E 004°26'510.5
2017-Dec-02 23:30N 60°31' E 004°28'510.9
2017-Dec-02 23:00N 60°26' E 004°30'510.3
2017-Dec-02 22:30N 60°21' E 004°33'5 9.9
2017-Dec-02 22:00N 60°16' E 004°35'510.1
2017-Dec-02 21:30N 60°11' E 004°37'510.0
2017-Dec-02 21:00N 60°06' E 004°39'510.1
2017-Dec-02 20:30N 60°01' E 004°41'510.5
2017-Dec-02 20:00N 59°56' E 004°43'510.4
2017-Dec-02 19:30N 59°51' E 004°45'510.5
2017-Dec-02 19:00N 59°46' E 004°48'510.5
2017-Dec-02 18:30N 59°40' E 004°50'510.6
2017-Dec-02 18:00N 59°35' E 004°52'610.9
2017-Dec-02 17:30N 59°30' E 004°55'611.3
2017-Dec-02 17:00N 59°24' E 004°57'611.8
2017-Dec-02 16:30N 59°18' E 004°59'611.8
2017-Dec-02 16:00N 59°13' E 005°02'611.4
2017-Dec-02 15:30N 59°08' E 005°07'510.7
2017-Dec-02 15:00N 59°07' E 005°17'510.8
2017-Dec-02 14:30N 59°06' E 005°28'510.3
2017-Dec-02 14:00N 59°03' E 005°35'510.2
2017-Dec-02 13:30N 59°02' E 005°45'4 8.3
2017-Dec-02 13:00N 58°58' E 005°46'1 2.6
2017-Dec-02 12:28N 58°57' E 005°45'0 0.0
2017-Dec-02 11:58N 58°57' E 005°45'0 0.0
2017-Dec-02 11:28N 58°57' E 005°45'0 0.0
2017-Dec-02 10:58N 58°57' E 005°45'0 0.0
2017-Dec-02 10:28N 58°57' E 005°45'0 0.0
2017-Dec-02 09:58N 58°57' E 005°45'0 0.0
2017-Dec-02 09:28N 58°57' E 005°45'0 0.0
2017-Dec-02 08:58N 58°57' E 005°45'0 0.0
2017-Dec-02 08:28N 58°57' E 005°45'0 0.0
2017-Dec-02 07:58N 58°57' E 005°45'0 0.0
2017-Dec-02 07:28N 58°57' E 005°45'0 0.0
2017-Dec-02 06:58N 58°57' E 005°45'0 0.0
2017-Dec-02 06:28N 58°57' E 005°45'0 0.0
2017-Dec-02 05:58N 58°57' E 005°45'0 0.0
2017-Dec-02 05:28N 58°57' E 005°45'0 0.0
2017-Dec-02 04:58N 58°57' E 005°45'0 0.1
2017-Dec-02 04:31N 58°57' E 005°45'3 6.9
2017-Dec-02 04:00N 58°60' E 005°48'4 7.3
2017-Dec-02 03:31N 59°01' E 005°41'5 8.8
2017-Dec-02 03:00N 59°02' E 005°33'611.3
2017-Dec-02 02:31N 58°57' E 005°33'611.4
2017-Dec-02 02:01N 58°51' E 005°31'510.9
2017-Dec-02 01:30N 58°48' E 005°22'510.7
2017-Dec-02 01:00N 58°43' E 005°19'611.6
2017-Dec-02 00:30N 58°38' E 005°17'611.2
2017-Dec-02 00:00N 58°32' E 005°17'710.6
2017-Dec-01 23:18N 58°25' E 005°19'310.6
2017-Dec-01 23:01N 58°22' E 005°22'611.2
2017-Dec-01 22:30N 58°18' E 005°31'510.9
2017-Dec-01 22:00N 58°15' E 005°38'510.6
2017-Dec-01 21:30N 58°11' E 005°46'510.4
2017-Dec-01 21:00N 58°08' E 005°53'510.3
2017-Dec-01 20:30N 58°05' E 006°01'510.5
2017-Dec-01 20:01N 58°01' E 006°08'510.7
2017-Dec-01 19:30N 57°57' E 006°16'611.0
2017-Dec-01 19:00N 57°54' E 006°23'611.4
2017-Dec-01 18:30N 57°50' E 006°32'611.9
2017-Dec-01 18:00N 57°48' E 006°42'612.6
2017-Dec-01 17:30N 57°46' E 006°54'612.5
2017-Dec-01 17:01N 57°45' E 007°05'612.3
2017-Dec-01 16:30N 57°45' E 007°16'611.6
2017-Dec-01 16:00N 57°45' E 007°27'611.3
2017-Dec-01 15:30N 57°45' E 007°38'611.3
2017-Dec-01 15:00N 57°46' E 007°48'611.2
2017-Dec-01 14:30N 57°46' E 007°59'510.8
2017-Dec-01 14:00N 57°47' E 008°09'7510.2
2017-Dec-01 06:36N 57°48' E 010°30'210.6
2017-Dec-01 06:27N 57°48' E 010°33'510.7
2017-Dec-01 06:00N 57°48' E 010°42'5 9.8
2017-Dec-01 05:30N 57°47' E 010°51'510.2
2017-Dec-01 05:00N 57°43' E 010°58'5 9.9
2017-Dec-01 04:30N 57°40' E 011°04'510.4
2017-Dec-01 04:00N 57°36' E 011°11'510.8
2017-Dec-01 03:30N 57°32' E 011°18'510.6
2017-Dec-01 03:00N 57°29' E 011°25'510.0
2017-Dec-01 02:30N 57°24' E 011°28'  
Track history (hours):
 
Tides and Currents Weather Stations Pressure Air Temp Water Temp Dewpoint Dewpoint Depression Visibility Wind Speed Wind Dir Waves Ship Positions

Kaprifol

Last reported at 2017-Dec-11 02:02 UTC. Time now 2017-Dec-11 19:21 UTC.
Position N 51°47' E 003°20'.

Length 89 m; draft 5.1 m.

Type: Tanker. MMSI: 210445000.

Date/timePositionNaut miles runAvg speedWind from/ knotsBaromVisibWave heightAir tempDewpointWater temp
2017-Dec-11 02:02N 51°47' E 003°20'0 0.0
2017-Dec-11 01:46N 51°47' E 003°20'0 0.0
2017-Dec-11 01:29N 51°47' E 003°20'0 0.0
2017-Dec-10 23:10N 51°47' E 003°20'0 0.0
2017-Dec-10 18:28N 51°47' E 003°21'0 0.0
2017-Dec-10 02:43N 51°47' E 003°20'0 0.0
2017-Dec-10 02:28N 51°47' E 003°20'0 0.0
2017-Dec-10 01:43N 51°47' E 003°20'0 0.0
2017-Dec-10 01:28N 51°47' E 003°20'66 7.3
2017-Dec-09 16:32N 52°50' E 003°49'1 9.3
2017-Dec-09 16:28N 52°51' E 003°50'5 9.5
2017-Dec-09 15:54N 52°55' E 003°56'37 9.6
2017-Dec-09 12:00N 53°24' E 004°35'4 8.6
2017-Dec-09 11:30N 53°28' E 004°39'4 7.8
2017-Dec-09 10:59N 53°30' E 004°44'4 7.5
2017-Dec-09 10:30N 53°31' E 004°50'4 7.6
2017-Dec-09 10:00N 53°32' E 004°56'4 7.5
2017-Dec-09 09:30N 53°33' E 005°02'4 7.2
2017-Dec-09 08:58N 53°35' E 005°08'93 7.5
2017-Dec-08 20:35N 54°01' E 007°38'110.0
2017-Dec-08 20:30N 54°01' E 007°40'510.0
2017-Dec-08 20:01N 54°02' E 007°48'5 9.9
2017-Dec-08 19:29N 54°01' E 007°57'5 9.5
2017-Dec-08 19:00N 54°01' E 008°05'5 9.8
2017-Dec-08 18:30N 54°01' E 008°13'510.3
2017-Dec-08 18:00N 53°60' E 008°22'612.4
2017-Dec-08 17:30N 53°58' E 008°32'611.5
2017-Dec-08 17:00N 53°56' E 008°40'511.0
2017-Dec-08 16:30N 53°51' E 008°46'5 9.2
2017-Dec-08 16:01N 53°51' E 008°53'4 8.1
2017-Dec-08 15:30N 53°51' E 009°00'4 8.2
2017-Dec-08 15:00N 53°53' E 009°07'1 2.6
2017-Dec-08 14:30N 53°54' E 009°09'0 0.0
2017-Dec-08 14:00N 53°54' E 009°09'0 0.0
2017-Dec-08 13:31N 53°54' E 009°09'1 2.2
2017-Dec-08 13:01N 53°54' E 009°10'4 8.1
2017-Dec-08 12:30N 53°57' E 009°15'4 8.0
2017-Dec-08 12:00N 54°01' E 009°18'1 2.8
2017-Dec-08 11:28N 54°02' E 009°18'1 2.1
2017-Dec-08 11:00N 54°03' E 009°18'4 7.9
2017-Dec-08 10:30N 54°07' E 009°20'2 5.1
2017-Dec-08 10:00N 54°09' E 009°22'4 7.3
2017-Dec-08 09:31N 54°11' E 009°28'3 6.7
2017-Dec-08 09:00N 54°12' E 009°33'1 1.4
2017-Dec-08 08:30N 54°12' E 009°34'3 6.3
2017-Dec-08 08:00N 54°15' E 009°37'4 7.4
2017-Dec-08 07:30N 54°18' E 009°42'4 6.3
2017-Dec-08 06:56N 54°21' E 009°45'30 5.5
2017-Dec-08 01:27N 54°33' E 010°32'510.5
2017-Dec-08 01:01N 54°35' E 010°39'510.2
2017-Dec-08 00:31N 54°36' E 010°48'510.6
2017-Dec-08 00:00N 54°40' E 010°51'510.4
2017-Dec-07 23:31N 54°46' E 010°52'510.9
2017-Dec-07 23:01N 54°51' E 010°52'510.6
2017-Dec-07 22:30N 54°56' E 010°55'510.4
2017-Dec-07 22:00N 55°00' E 011°01'611.0
2017-Dec-07 21:30N 55°06' E 011°02'610.5
2017-Dec-07 20:57N 55°11' E 011°04'61 9.8
2017-Dec-07 14:44N 56°07' E 010°19'4 9.5
2017-Dec-07 14:19N 56°10' E 010°14'1 0.1
2017-Dec-06 23:28N 56°09' E 010°13'2 2.7
2017-Dec-06 22:52N 56°09' E 010°16'  
2017-Dec-04 10:30N 63°16' E 006°55'4 8.4
2017-Dec-04 10:00N 63°16' E 007°04'4 8.3
2017-Dec-04 09:30N 63°15' E 007°13'4 9.1
2017-Dec-04 09:00N 63°15' E 007°23'4 8.7
2017-Dec-04 08:30N 63°15' E 007°33'4 8.4
2017-Dec-04 08:00N 63°14' E 007°42'4 8.8
2017-Dec-04 07:30N 63°09' E 007°43'510.8
2017-Dec-04 07:00N 63°04' E 007°41'1 1.6
2017-Dec-04 06:28N 63°03' E 007°40'0 0.0
2017-Dec-04 05:58N 63°03' E 007°40'0 0.0
2017-Dec-04 05:28N 63°03' E 007°40'0 0.0
2017-Dec-04 04:58N 63°03' E 007°40'0 0.0
2017-Dec-04 04:28N 63°03' E 007°40'0 0.0
2017-Dec-04 03:58N 63°03' E 007°40'0 0.0
2017-Dec-04 03:28N 63°03' E 007°40'0 0.0
2017-Dec-04 02:58N 63°03' E 007°40'0 0.0
2017-Dec-04 02:28N 63°03' E 007°40'0 0.0
2017-Dec-04 01:58N 63°03' E 007°40'0 0.0
2017-Dec-04 01:28N 63°03' E 007°40'0 0.0
2017-Dec-04 00:58N 63°03' E 007°40'0 0.0
2017-Dec-04 00:25N 63°03' E 007°40'0 0.0
2017-Dec-03 23:58N 63°03' E 007°40'0 0.0
2017-Dec-03 23:28N 63°03' E 007°40'0 0.0
2017-Dec-03 22:58N 63°03' E 007°40'0 0.0
2017-Dec-03 22:28N 63°03' E 007°40'1 1.9
2017-Dec-03 22:00N 63°04' E 007°41'2 4.5
2017-Dec-03 21:30N 63°06' E 007°41'3 5.7
2017-Dec-03 21:01N 63°09' E 007°42'3 5.3
2017-Dec-03 20:30N 63°11' E 007°45'4 7.0
2017-Dec-03 20:00N 63°14' E 007°40'611.1
2017-Dec-03 19:30N 63°14' E 007°27'611.3
2017-Dec-03 19:00N 63°11' E 007°16'611.3
2017-Dec-03 18:30N 63°08' E 007°05'510.8
2017-Dec-03 18:00N 63°05' E 006°55'510.7
2017-Dec-03 17:30N 63°03' E 006°45'510.7
2017-Dec-03 17:00N 63°00' E 006°34'510.5
2017-Dec-03 16:30N 62°57' E 006°25'510.9
2017-Dec-03 16:00N 62°53' E 006°17'611.0
2017-Dec-03 15:30N 62°50' E 006°08'611.1
2017-Dec-03 15:00N 62°46' E 005°59'510.9
2017-Dec-03 14:30N 62°42' E 005°50'510.9
2017-Dec-03 14:00N 62°39' E 005°41'510.8
2017-Dec-03 13:30N 62°35' E 005°32'510.6
2017-Dec-03 13:00N 62°31' E 005°24'510.6
2017-Dec-03 12:30N 62°28' E 005°16'510.5
2017-Dec-03 12:00N 62°24' E 005°08'510.3
2017-Dec-03 11:30N 62°21' E 004°59'510.1
2017-Dec-03 11:00N 62°16' E 004°54'510.1
2017-Dec-03 10:30N 62°12' E 004°49'510.3
2017-Dec-03 10:00N 62°07' E 004°43'510.4
2017-Dec-03 09:30N 62°03' E 004°38'510.2
2017-Dec-03 09:00N 61°58' E 004°33'5 9.6
2017-Dec-03 08:30N 61°54' E 004°29'4 8.8
2017-Dec-03 08:00N 61°50' E 004°28'4 8.7
2017-Dec-03 07:30N 61°45' E 004°26'4 8.8
2017-Dec-03 07:00N 61°41' E 004°25'4 8.9
2017-Dec-03 06:30N 61°36' E 004°24'4 8.8
2017-Dec-03 06:00N 61°32' E 004°23'4 8.8
2017-Dec-03 05:30N 61°28' E 004°23'4 8.9
2017-Dec-03 05:00N 61°23' E 004°23'5 9.5
2017-Dec-03 04:30N 61°18' E 004°22'5 8.9
2017-Dec-03 04:00N 61°14' E 004°21'4 9.1
2017-Dec-03 03:30N 61°10' E 004°20'5 9.7
2017-Dec-03 03:00N 61°05' E 004°19'510.2
2017-Dec-03 02:30N 60°60' E 004°18'510.3
2017-Dec-03 02:00N 60°55' E 004°17'510.0
2017-Dec-03 01:30N 60°50' E 004°20'5 9.4
2017-Dec-03 01:00N 60°45' E 004°22'5 9.2
2017-Dec-03 00:30N 60°40' E 004°23'5 9.6
2017-Dec-03 00:00N 60°36' E 004°26'510.5
2017-Dec-02 23:30N 60°31' E 004°28'510.9
2017-Dec-02 23:00N 60°26' E 004°30'510.3
2017-Dec-02 22:30N 60°21' E 004°33'5 9.9
2017-Dec-02 22:00N 60°16' E 004°35'510.1
2017-Dec-02 21:30N 60°11' E 004°37'510.0
2017-Dec-02 21:00N 60°06' E 004°39'510.1
2017-Dec-02 20:30N 60°01' E 004°41'510.5
2017-Dec-02 20:00N 59°56' E 004°43'510.4
2017-Dec-02 19:30N 59°51' E 004°45'510.5
2017-Dec-02 19:00N 59°46' E 004°48'510.5
2017-Dec-02 18:30N 59°40' E 004°50'510.6
2017-Dec-02 18:00N 59°35' E 004°52'610.9
2017-Dec-02 17:30N 59°30' E 004°55'611.3
2017-Dec-02 17:00N 59°24' E 004°57'611.8
2017-Dec-02 16:30N 59°18' E 004°59'611.8
2017-Dec-02 16:00N 59°13' E 005°02'611.4
2017-Dec-02 15:30N 59°08' E 005°07'510.7
2017-Dec-02 15:00N 59°07' E 005°17'510.8
2017-Dec-02 14:30N 59°06' E 005°28'510.3
2017-Dec-02 14:00N 59°03' E 005°35'510.2
2017-Dec-02 13:30N 59°02' E 005°45'4 8.3
2017-Dec-02 13:00N 58°58' E 005°46'1 2.6
2017-Dec-02 12:28N 58°57' E 005°45'0 0.0
2017-Dec-02 11:58N 58°57' E 005°45'0 0.0
2017-Dec-02 11:28N 58°57' E 005°45'0 0.0
2017-Dec-02 10:58N 58°57' E 005°45'0 0.0
2017-Dec-02 10:28N 58°57' E 005°45'0 0.0
2017-Dec-02 09:58N 58°57' E 005°45'0 0.0
2017-Dec-02 09:28N 58°57' E 005°45'0 0.0
2017-Dec-02 08:58N 58°57' E 005°45'0 0.0
2017-Dec-02 08:28N 58°57' E 005°45'0 0.0
2017-Dec-02 07:58N 58°57' E 005°45'0 0.0
2017-Dec-02 07:28N 58°57' E 005°45'0 0.0
2017-Dec-02 06:58N 58°57' E 005°45'0 0.0
2017-Dec-02 06:28N 58°57' E 005°45'0 0.0
2017-Dec-02 05:58N 58°57' E 005°45'0 0.0
2017-Dec-02 05:28N 58°57' E 005°45'0 0.0
2017-Dec-02 04:58N 58°57' E 005°45'0 0.1
2017-Dec-02 04:31N 58°57' E 005°45'3 6.9
2017-Dec-02 04:00N 58°60' E 005°48'4 7.3
2017-Dec-02 03:31N 59°01' E 005°41'5 8.8
2017-Dec-02 03:00N 59°02' E 005°33'611.3
2017-Dec-02 02:31N 58°57' E 005°33'611.4
2017-Dec-02 02:01N 58°51' E 005°31'510.9
2017-Dec-02 01:30N 58°48' E 005°22'510.7
2017-Dec-02 01:00N 58°43' E 005°19'611.6
2017-Dec-02 00:30N 58°38' E 005°17'611.2
2017-Dec-02 00:00N 58°32' E 005°17'710.6
2017-Dec-01 23:18N 58°25' E 005°19'310.6
2017-Dec-01 23:01N 58°22' E 005°22'611.2
2017-Dec-01 22:30N 58°18' E 005°31'510.9
2017-Dec-01 22:00N 58°15' E 005°38'510.6
2017-Dec-01 21:30N 58°11' E 005°46'510.4
2017-Dec-01 21:00N 58°08' E 005°53'510.3
2017-Dec-01 20:30N 58°05' E 006°01'510.5
2017-Dec-01 20:01N 58°01' E 006°08'510.7
2017-Dec-01 19:30N 57°57' E 006°16'611.0
2017-Dec-01 19:00N 57°54' E 006°23'611.4
2017-Dec-01 18:30N 57°50' E 006°32'611.9
2017-Dec-01 18:00N 57°48' E 006°42'612.6
2017-Dec-01 17:30N 57°46' E 006°54'612.5
2017-Dec-01 17:01N 57°45' E 007°05'612.3
2017-Dec-01 16:30N 57°45' E 007°16'611.6
2017-Dec-01 16:00N 57°45' E 007°27'611.3
2017-Dec-01 15:30N 57°45' E 007°38'611.3
2017-Dec-01 15:00N 57°46' E 007°48'611.2
2017-Dec-01 14:30N 57°46' E 007°59'510.8
2017-Dec-01 14:00N 57°47' E 008°09'7510.2
2017-Dec-01 06:36N 57°48' E 010°30'210.6
2017-Dec-01 06:27N 57°48' E 010°33'510.7
2017-Dec-01 06:00N 57°48' E 010°42'5 9.8
2017-Dec-01 05:30N 57°47' E 010°51'510.2
2017-Dec-01 05:00N 57°43' E 010°58'5 9.9
2017-Dec-01 04:30N 57°40' E 011°04'510.4
2017-Dec-01 04:00N 57°36' E 011°11'510.8
2017-Dec-01 03:30N 57°32' E 011°18'510.6
2017-Dec-01 03:00N 57°29' E 011°25'510.0
2017-Dec-01 02:30N 57°24' E 011°28'  

Dump ship's entire track history